sensor_id;sensor_type;location;lat;lon;timestamp;pressure;altitude;pressure_sealevel;temperature;humidity
80308;BME280;69616;43.522;1.348;2023-06-10T00:02:20;99526.94;;;18.47;72.67
80308;BME280;69616;43.522;1.348;2023-06-10T00:04:45;99521.69;;;18.46;72.59
80308;BME280;69616;43.522;1.348;2023-06-10T00:07:11;99515.53;;;18.44;72.71
80308;BME280;69616;43.522;1.348;2023-06-10T00:09:38;99515.69;;;18.41;72.77
80308;BME280;69616;43.522;1.348;2023-06-10T00:12:07;99505.19;;;18.38;72.54
80308;BME280;69616;43.522;1.348;2023-06-10T00:14:37;99503.63;;;18.33;72.90
80308;BME280;69616;43.522;1.348;2023-06-10T00:17:02;99497.72;;;18.27;73.03
80308;BME280;69616;43.522;1.348;2023-06-10T00:19:28;99500.47;;;18.25;73.02
80308;BME280;69616;43.522;1.348;2023-06-10T00:21:55;99499.44;;;18.28;72.91
80308;BME280;69616;43.522;1.348;2023-06-10T00:24:21;99497.66;;;18.28;72.81
80308;BME280;69616;43.522;1.348;2023-06-10T00:26:47;99492.31;;;18.28;72.72
80308;BME280;69616;43.522;1.348;2023-06-10T00:29:12;99497.66;;;18.28;73.06
80308;BME280;69616;43.522;1.348;2023-06-10T00:31:39;99500.22;;;18.30;72.74
80308;BME280;69616;43.522;1.348;2023-06-10T00:34:05;99500.31;;;18.28;72.90
80308;BME280;69616;43.522;1.348;2023-06-10T00:36:30;99496.88;;;18.26;72.71
80308;BME280;69616;43.522;1.348;2023-06-10T00:38:56;99505.88;;;18.24;72.77
80308;BME280;69616;43.522;1.348;2023-06-10T00:41:22;99500.75;;;18.19;72.82
80308;BME280;69616;43.522;1.348;2023-06-10T00:43:48;99501.84;;;18.15;72.86
80308;BME280;69616;43.522;1.348;2023-06-10T00:46:13;99498.53;;;18.10;72.78
80308;BME280;69616;43.522;1.348;2023-06-10T00:48:40;99502.44;;;18.02;72.88
80308;BME280;69616;43.522;1.348;2023-06-10T00:51:06;99508.28;;;17.90;73.10
80308;BME280;69616;43.522;1.348;2023-06-10T00:53:35;99511.44;;;17.79;73.35
80308;BME280;69616;43.522;1.348;2023-06-10T00:56:02;99505.69;;;17.69;73.60
80308;BME280;69616;43.522;1.348;2023-06-10T00:58:28;99511.16;;;17.66;73.74
80308;BME280;69616;43.522;1.348;2023-06-10T01:00:53;99502.66;;;17.58;74.02
80308;BME280;69616;43.522;1.348;2023-06-10T01:03:19;99506.16;;;17.58;73.95
80308;BME280;69616;43.522;1.348;2023-06-10T01:05:50;99503.59;;;17.57;74.05
80308;BME280;69616;43.522;1.348;2023-06-10T01:08:29;99507.06;;;17.59;74.27
80308;BME280;69616;43.522;1.348;2023-06-10T01:11:00;99501.88;;;17.56;74.11
80308;BME280;69616;43.522;1.348;2023-06-10T01:13:27;99509.84;;;17.56;74.33
80308;BME280;69616;43.522;1.348;2023-06-10T01:15:58;99508.97;;;17.55;74.05
80308;BME280;69616;43.522;1.348;2023-06-10T01:18:30;99507.91;;;17.59;73.94
80308;BME280;69616;43.522;1.348;2023-06-10T01:20:56;99502.56;;;17.59;74.04
80308;BME280;69616;43.522;1.348;2023-06-10T01:23:21;99503.50;;;17.58;73.83
80308;BME280;69616;43.522;1.348;2023-06-10T01:25:59;99503.00;;;17.50;74.56
80308;BME280;69616;43.522;1.348;2023-06-10T01:33:39;99504.38;;;17.40;74.68
80308;BME280;69616;43.522;1.348;2023-06-10T01:36:06;99499.03;;;17.40;74.79
80308;BME280;69616;43.522;1.348;2023-06-10T01:38:37;99503.47;;;17.39;75.11
80308;BME280;69616;43.522;1.348;2023-06-10T01:41:05;99499.09;;;17.38;74.78
80308;BME280;69616;43.522;1.348;2023-06-10T01:43:34;99505.28;;;17.39;74.77
80308;BME280;69616;43.522;1.348;2023-06-10T01:46:00;99503.34;;;17.42;74.65
80308;BME280;69616;43.522;1.348;2023-06-10T01:48:26;99505.06;;;17.43;74.69
80308;BME280;69616;43.522;1.348;2023-06-10T01:50:52;99505.00;;;17.45;74.53
80308;BME280;69616;43.522;1.348;2023-06-10T01:53:17;99506.66;;;17.47;74.51
80308;BME280;69616;43.522;1.348;2023-06-10T01:55:43;99503.00;;;17.50;74.35
80308;BME280;69616;43.522;1.348;2023-06-10T01:58:08;99499.34;;;17.53;74.40
80308;BME280;69616;43.522;1.348;2023-06-10T02:00:33;99502.88;;;17.53;74.43
80308;BME280;69616;43.522;1.348;2023-06-10T02:02:59;99507.53;;;17.48;74.18
80308;BME280;69616;43.522;1.348;2023-06-10T02:05:24;99506.94;;;17.41;74.31
80308;BME280;69616;43.522;1.348;2023-06-10T02:07:49;99511.47;;;17.39;74.43
80308;BME280;69616;43.522;1.348;2023-06-10T02:10:16;99508.81;;;17.39;74.42
80308;BME280;69616;43.522;1.348;2023-06-10T02:12:41;99516.97;;;17.34;74.71
80308;BME280;69616;43.522;1.348;2023-06-10T02:15:06;99513.63;;;17.31;74.94
80308;BME280;69616;43.522;1.348;2023-06-10T02:17:32;99519.88;;;17.30;74.76
80308;BME280;69616;43.522;1.348;2023-06-10T02:19:57;99520.81;;;17.29;74.82
80308;BME280;69616;43.522;1.348;2023-06-10T02:22:24;99517.22;;;17.30;74.81
80308;BME280;69616;43.522;1.348;2023-06-10T02:24:50;99516.19;;;17.32;74.69
80308;BME280;69616;43.522;1.348;2023-06-10T02:27:16;99516.97;;;17.34;74.70
80308;BME280;69616;43.522;1.348;2023-06-10T02:29:42;99519.59;;;17.36;74.40
80308;BME280;69616;43.522;1.348;2023-06-10T02:32:08;99508.94;;;17.36;74.49
80308;BME280;69616;43.522;1.348;2023-06-10T02:34:34;99518.66;;;17.37;74.35
80308;BME280;69616;43.522;1.348;2023-06-10T02:36:59;99519.59;;;17.36;74.37
80308;BME280;69616;43.522;1.348;2023-06-10T02:39:25;99527.56;;;17.36;74.39
80308;BME280;69616;43.522;1.348;2023-06-10T02:41:51;99521.38;;;17.35;74.22
80308;BME280;69616;43.522;1.348;2023-06-10T02:44:18;99512.53;;;17.35;74.14
80308;BME280;69616;43.522;1.348;2023-06-10T02:46:43;99514.28;;;17.36;74.36
80308;BME280;69616;43.522;1.348;2023-06-10T02:49:09;99512.53;;;17.35;74.45
80308;BME280;69616;43.522;1.348;2023-06-10T02:51:34;99513.47;;;17.34;74.17
80308;BME280;69616;43.522;1.348;2023-06-10T02:54:00;99507.38;;;17.32;74.07
80308;BME280;69616;43.522;1.348;2023-06-10T02:56:26;99514.56;;;17.30;74.28
80308;BME280;69616;43.522;1.348;2023-06-10T02:58:51;99513.75;;;17.28;74.23
80308;BME280;69616;43.522;1.348;2023-06-10T03:01:17;99518.19;;;17.27;74.23
80308;BME280;69616;43.522;1.348;2023-06-10T03:03:44;99530.66;;;17.27;74.04
80308;BME280;69616;43.522;1.348;2023-06-10T03:06:13;99525.56;;;17.20;74.00
80308;BME280;69616;43.522;1.348;2023-06-10T03:08:39;99525.72;;;17.17;74.15
80308;BME280;69616;43.522;1.348;2023-06-10T03:11:05;99528.47;;;17.16;74.19
80308;BME280;69616;43.522;1.348;2023-06-10T03:13:32;99529.59;;;17.10;74.30
80308;BME280;69616;43.522;1.348;2023-06-10T03:15:57;99534.16;;;17.06;74.38
80308;BME280;69616;43.522;1.348;2023-06-10T03:18:27;99537.69;;;17.07;74.10
80308;BME280;69616;43.522;1.348;2023-06-10T03:20:53;99538.69;;;17.04;74.18
80308;BME280;69616;43.522;1.348;2023-06-10T03:23:20;99540.63;;;17.01;74.03
80308;BME280;69616;43.522;1.348;2023-06-10T03:25:45;99542.47;;;16.99;74.24
80308;BME280;69616;43.522;1.348;2023-06-10T03:28:11;99536.28;;;16.98;74.13
80308;BME280;69616;43.522;1.348;2023-06-10T03:30:36;99540.69;;;16.98;74.19
80308;BME280;69616;43.522;1.348;2023-06-10T03:33:02;99542.47;;;16.99;74.26
80308;BME280;69616;43.522;1.348;2023-06-10T03:35:27;99540.69;;;16.98;74.07
80308;BME280;69616;43.522;1.348;2023-06-10T03:37:52;99550.50;;;16.97;74.19
80308;BME280;69616;43.522;1.348;2023-06-10T03:40:18;99540.81;;;16.94;74.15
80308;BME280;69616;43.522;1.348;2023-06-10T03:42:43;99542.56;;;16.96;74.20
80308;BME280;69616;43.522;1.348;2023-06-10T03:45:10;99549.88;;;16.90;74.12
80308;BME280;69616;43.522;1.348;2023-06-10T03:47:36;99548.28;;;16.86;74.26
80308;BME280;69616;43.522;1.348;2023-06-10T03:50:05;99549.25;;;16.84;74.36
80308;BME280;69616;43.522;1.348;2023-06-10T03:52:30;99553.72;;;16.83;74.43
80308;BME280;69616;43.522;1.348;2023-06-10T03:54:56;99546.69;;;16.82;74.29
80308;BME280;69616;43.522;1.348;2023-06-10T03:57:21;99551.13;;;16.82;74.44
80308;BME280;69616;43.522;1.348;2023-06-10T03:59:47;99557.31;;;16.82;74.25
80308;BME280;69616;43.522;1.348;2023-06-10T04:02:12;99551.06;;;16.83;74.17
80308;BME280;69616;43.522;1.348;2023-06-10T04:04:38;99559.34;;;16.75;74.28
80308;BME280;69616;43.522;1.348;2023-06-10T04:07:04;99560.47;;;16.70;74.46
80308;BME280;69616;43.522;1.348;2023-06-10T04:09:30;99563.25;;;16.67;74.65
80308;BME280;69616;43.522;1.348;2023-06-10T04:11:55;99568.56;;;16.67;74.74
80308;BME280;69616;43.522;1.348;2023-06-10T04:14:21;99572.91;;;16.69;74.55
80308;BME280;69616;43.522;1.348;2023-06-10T04:16:46;99568.31;;;16.73;74.73
80308;BME280;69616;43.522;1.348;2023-06-10T04:19:12;99570.91;;;16.74;74.69
80308;BME280;69616;43.522;1.348;2023-06-10T04:21:37;99578.94;;;16.73;74.95
80308;BME280;69616;43.522;1.348;2023-06-10T04:24:02;99582.53;;;16.72;74.80
80308;BME280;69616;43.522;1.348;2023-06-10T04:26:28;99580.66;;;16.74;74.88
80308;BME280;69616;43.522;1.348;2023-06-10T04:28:53;99582.31;;;16.78;74.44
80308;BME280;69616;43.522;1.348;2023-06-10T04:31:19;99583.91;;;16.82;74.37
80308;BME280;69616;43.522;1.348;2023-06-10T04:33:44;99581.13;;;16.85;74.42
80308;BME280;69616;43.522;1.348;2023-06-10T04:36:10;99581.03;;;16.87;74.42
80308;BME280;69616;43.522;1.348;2023-06-10T04:38:35;99583.78;;;16.85;74.77
80308;BME280;69616;43.522;1.348;2023-06-10T04:41:01;99589.09;;;16.85;74.75
80308;BME280;69616;43.522;1.348;2023-06-10T04:43:26;99591.66;;;16.87;74.66
80308;BME280;69616;43.522;1.348;2023-06-10T04:45:54;99591.75;;;16.85;74.74
80308;BME280;69616;43.522;1.348;2023-06-10T04:48:19;99594.41;;;16.85;74.75
80308;BME280;69616;43.522;1.348;2023-06-10T04:50:44;99591.63;;;16.88;74.51
80308;BME280;69616;43.522;1.348;2023-06-10T04:53:10;99599.59;;;16.88;74.59
80308;BME280;69616;43.522;1.348;2023-06-10T04:55:35;99602.13;;;16.91;74.71
80308;BME280;69616;43.522;1.348;2023-06-10T04:58:01;99603.84;;;16.92;74.42
80308;BME280;69616;43.522;1.348;2023-06-10T05:00:27;99598.63;;;16.91;74.41
80308;BME280;69616;43.522;1.348;2023-06-10T05:02:52;99602.94;;;16.93;74.31
80308;BME280;69616;43.522;1.348;2023-06-10T05:05:18;99605.34;;;17.00;74.32
80308;BME280;69616;43.522;1.348;2023-06-10T05:07:44;99598.88;;;17.07;74.21
80308;BME280;69616;43.522;1.348;2023-06-10T05:10:10;99602.22;;;17.12;74.06
80308;BME280;69616;43.522;1.348;2023-06-10T05:12:35;99606.19;;;17.02;74.21
80308;BME280;69616;43.522;1.348;2023-06-10T05:15:00;99606.28;;;16.99;74.77
80308;BME280;69616;43.522;1.348;2023-06-10T05:17:26;99608.25;;;16.93;74.92
80308;BME280;69616;43.522;1.348;2023-06-10T05:19:52;99615.25;;;16.96;74.92
80308;BME280;69616;43.522;1.348;2023-06-10T05:22:18;99607.53;;;17.12;74.66
80308;BME280;69616;43.522;1.348;2023-06-10T05:24:44;99604.81;;;17.34;73.99
80308;BME280;69616;43.522;1.348;2023-06-10T05:27:10;99605.13;;;17.47;73.80
80308;BME280;69616;43.522;1.348;2023-06-10T05:29:35;99602.38;;;17.50;73.58
80308;BME280;69616;43.522;1.348;2023-06-10T05:32:01;99609.56;;;17.48;74.00
80308;BME280;69616;43.522;1.348;2023-06-10T05:34:31;99607.41;;;17.57;73.79
80308;BME280;69616;43.522;1.348;2023-06-10T05:36:57;99605.94;;;17.70;72.97
80308;BME280;69616;43.522;1.348;2023-06-10T05:39:22;99611.22;;;17.91;72.84
80308;BME280;69616;43.522;1.348;2023-06-10T05:41:48;99602.16;;;18.16;72.13
80308;BME280;69616;43.522;1.348;2023-06-10T05:44:13;99613.97;;;18.29;71.88
80308;BME280;69616;43.522;1.348;2023-06-10T05:46:39;99611.47;;;18.45;71.36
80308;BME280;69616;43.522;1.348;2023-06-10T05:49:04;99618.78;;;18.59;71.09
80308;BME280;69616;43.522;1.348;2023-06-10T05:51:29;99608.41;;;18.72;71.08
80308;BME280;69616;43.522;1.348;2023-06-10T05:53:55;99618.53;;;18.83;70.82
80308;BME280;69616;43.522;1.348;2023-06-10T05:56:20;99611.03;;;18.91;70.69
80308;BME280;69616;43.522;1.348;2023-06-10T05:58:49;99616.34;;;18.91;71.04
80308;BME280;69616;43.522;1.348;2023-06-10T06:01:14;99613.66;;;18.74;71.42
80308;BME280;69616;43.522;1.348;2023-06-10T06:03:40;99621.94;;;18.68;71.74
80308;BME280;69616;43.522;1.348;2023-06-10T06:06:06;99629.25;;;18.64;72.33
80308;BME280;69616;43.522;1.348;2023-06-10T06:08:31;99629.16;;;18.65;72.33
80308;BME280;69616;43.522;1.348;2023-06-10T06:10:57;99628.38;;;18.83;71.85
80308;BME280;69616;43.522;1.348;2023-06-10T06:13:22;99624.97;;;18.98;71.56
80308;BME280;69616;43.522;1.348;2023-06-10T06:15:48;99617.22;;;19.11;71.29
80308;BME280;69616;43.522;1.348;2023-06-10T06:18:13;99632.28;;;19.12;71.33
80308;BME280;69616;43.522;1.348;2023-06-10T06:20:39;99621.44;;;19.15;71.70
80308;BME280;69616;43.522;1.348;2023-06-10T06:23:05;99623.50;;;19.10;71.47
80308;BME280;69616;43.522;1.348;2023-06-10T06:25:30;99625.38;;;19.08;71.85
80308;BME280;69616;43.522;1.348;2023-06-10T06:27:55;99622.53;;;19.11;72.06
80308;BME280;69616;43.522;1.348;2023-06-10T06:30:21;99619.28;;;19.24;72.17
80308;BME280;69616;43.522;1.348;2023-06-10T06:32:46;99622.09;;;19.38;71.72
80308;BME280;69616;43.522;1.348;2023-06-10T06:35:11;99623.34;;;19.48;71.75
80308;BME280;69616;43.522;1.348;2023-06-10T06:37:37;99618.94;;;19.65;71.46
80308;BME280;69616;43.522;1.348;2023-06-10T06:40:02;99625.38;;;19.78;70.99
80308;BME280;69616;43.522;1.348;2023-06-10T06:42:29;99629.25;;;19.89;70.74
80308;BME280;69616;43.522;1.348;2023-06-10T06:44:54;99626.16;;;19.98;70.79
80308;BME280;69616;43.522;1.348;2023-06-10T06:47:19;99620.22;;;20.09;70.75
80308;BME280;69616;43.522;1.348;2023-06-10T06:49:46;99620.50;;;20.36;70.57
80308;BME280;69616;43.522;1.348;2023-06-10T06:52:12;99620.44;;;20.54;69.91
80308;BME280;69616;43.522;1.348;2023-06-10T06:54:38;99623.81;;;20.58;69.98
80308;BME280;69616;43.522;1.348;2023-06-10T06:57:03;99623.81;;;20.74;69.60
80308;BME280;69616;43.522;1.348;2023-06-10T06:59:29;99627.19;;;20.93;68.87
80308;BME280;69616;43.522;1.348;2023-06-10T07:01:54;99635.34;;;21.22;69.07
80308;BME280;69616;43.522;1.348;2023-06-10T07:04:20;99628.72;;;21.44;68.26
80308;BME280;69616;43.522;1.348;2023-06-10T07:06:47;99631.25;;;21.62;68.18
80308;BME280;69616;43.522;1.348;2023-06-10T07:09:12;99628.97;;;21.70;67.85
80308;BME280;69616;43.522;1.348;2023-06-10T07:11:38;99630.06;;;21.97;67.67
80308;BME280;69616;43.522;1.348;2023-06-10T07:14:04;99630.91;;;22.26;66.59
80308;BME280;69616;43.522;1.348;2023-06-10T07:16:29;99625.34;;;22.44;66.24
80308;BME280;69616;43.522;1.348;2023-06-10T07:18:54;99626.31;;;22.57;65.44
80308;BME280;69616;43.522;1.348;2023-06-10T07:21:20;99622.56;;;22.60;65.26
80308;BME280;69616;43.522;1.348;2023-06-10T07:23:46;99627.28;;;22.56;65.35
80308;BME280;69616;43.522;1.348;2023-06-10T07:26:11;99626.75;;;22.64;64.95
80308;BME280;69616;43.522;1.348;2023-06-10T07:28:39;99631.56;;;22.73;65.34
80308;BME280;69616;43.522;1.348;2023-06-10T07:31:05;99625.56;;;22.83;65.13
80308;BME280;69616;43.522;1.348;2023-06-10T07:33:30;99630.03;;;22.97;64.68
80308;BME280;69616;43.522;1.348;2023-06-10T07:36:03;99629.09;;;23.11;64.55
80308;BME280;69616;43.522;1.348;2023-06-10T07:38:29;99629.47;;;23.19;64.08
80308;BME280;69616;43.522;1.348;2023-06-10T07:40:54;99634.19;;;23.15;63.46
80308;BME280;69616;43.522;1.348;2023-06-10T07:43:19;99626.88;;;23.17;63.60
80308;BME280;69616;43.522;1.348;2023-06-10T07:45:45;99634.16;;;23.30;63.85
80308;BME280;69616;43.522;1.348;2023-06-10T07:48:10;99631.38;;;23.44;64.00
80308;BME280;69616;43.522;1.348;2023-06-10T07:50:36;99638.81;;;23.54;63.82
80308;BME280;69616;43.522;1.348;2023-06-10T07:53:02;99639.34;;;23.59;63.87
80308;BME280;69616;43.522;1.348;2023-06-10T07:55:27;99632.72;;;23.64;62.84
80308;BME280;69616;43.522;1.348;2023-06-10T07:57:53;99635.06;;;23.69;63.25
80308;BME280;69616;43.522;1.348;2023-06-10T08:00:19;99634.09;;;23.83;63.64
80308;BME280;69616;43.522;1.348;2023-06-10T08:02:45;99642.41;;;24.06;63.42
80308;BME280;69616;43.522;1.348;2023-06-10T08:05:11;99644.00;;;24.21;62.28
80308;BME280;69616;43.522;1.348;2023-06-10T08:07:36;99643.25;;;24.32;62.84
80308;BME280;69616;43.522;1.348;2023-06-10T08:10:02;99641.28;;;24.47;61.52
80308;BME280;69616;43.522;1.348;2023-06-10T08:12:29;99644.81;;;24.61;61.19
80308;BME280;69616;43.522;1.348;2023-06-10T08:14:55;99647.66;;;24.71;60.22
80308;BME280;69616;43.522;1.348;2023-06-10T08:17:20;99630.97;;;24.78;59.59
80308;BME280;69616;43.522;1.348;2023-06-10T08:19:46;99635.47;;;24.91;60.18
80308;BME280;69616;43.522;1.348;2023-06-10T08:22:11;99639.50;;;25.10;60.28
80308;BME280;69616;43.522;1.348;2023-06-10T08:24:37;99640.03;;;25.26;59.68
80308;BME280;69616;43.522;1.348;2023-06-10T08:27:02;99636.88;;;25.32;58.53
80308;BME280;69616;43.522;1.348;2023-06-10T08:29:28;99645.56;;;25.36;58.41
80308;BME280;69616;43.522;1.348;2023-06-10T08:31:55;99639.50;;;25.45;58.72
80308;BME280;69616;43.522;1.348;2023-06-10T08:34:20;99640.78;;;25.64;58.24
80308;BME280;69616;43.522;1.348;2023-06-10T08:36:46;99637.88;;;25.90;57.74
80308;BME280;69616;43.522;1.348;2023-06-10T08:39:11;99637.59;;;26.17;57.24
80308;BME280;69616;43.522;1.348;2023-06-10T08:41:40;99634.25;;;26.36;56.57
80308;BME280;69616;43.522;1.348;2023-06-10T08:44:17;99634.88;;;26.40;55.25
80308;BME280;69616;43.522;1.348;2023-06-10T08:46:47;99641.22;;;26.50;54.50
80308;BME280;69616;43.522;1.348;2023-06-10T08:49:18;99645.03;;;26.59;54.24
80308;BME280;69616;43.522;1.348;2023-06-10T08:51:49;99641.81;;;26.77;54.33
80308;BME280;69616;43.522;1.348;2023-06-10T08:54:18;99638.72;;;26.93;54.16
80308;BME280;69616;43.522;1.348;2023-06-10T08:56:49;99642.72;;;27.10;54.44
80308;BME280;69616;43.522;1.348;2023-06-10T08:59:15;99640.34;;;27.28;52.94
80308;BME280;69616;43.522;1.348;2023-06-10T09:01:44;99637.81;;;27.36;52.00
80308;BME280;69616;43.522;1.348;2023-06-10T09:04:10;99637.44;;;27.41;51.60
80308;BME280;69616;43.522;1.348;2023-06-10T09:06:37;99638.63;;;27.48;51.86
80308;BME280;69616;43.522;1.348;2023-06-10T09:09:03;99635.91;;;27.48;51.19
80308;BME280;69616;43.522;1.348;2023-06-10T09:11:31;99636.88;;;27.59;51.19
80308;BME280;69616;43.522;1.348;2023-06-10T09:13:56;99637.09;;;27.67;50.78
80308;BME280;69616;43.522;1.348;2023-06-10T09:16:23;99640.91;;;27.86;50.88
80308;BME280;69616;43.522;1.348;2023-06-10T09:18:48;99639.41;;;28.03;51.64
80308;BME280;69616;43.522;1.348;2023-06-10T09:21:20;99642.97;;;28.25;51.38
80308;BME280;69616;43.522;1.348;2023-06-10T09:23:46;99639.03;;;28.39;50.42
80308;BME280;69616;43.522;1.348;2023-06-10T09:26:11;99638.19;;;28.48;50.69
80308;BME280;69616;43.522;1.348;2023-06-10T09:28:37;99635.94;;;28.53;49.33
80308;BME280;69616;43.522;1.348;2023-06-10T09:31:05;99636.91;;;28.52;49.34
80308;BME280;69616;43.522;1.348;2023-06-10T09:33:31;99637.50;;;28.56;49.06
80308;BME280;69616;43.522;1.348;2023-06-10T09:35:57;99632.22;;;28.54;48.01
80308;BME280;69616;43.522;1.348;2023-06-10T09:38:29;99631.22;;;28.55;47.97
80308;BME280;69616;43.522;1.348;2023-06-10T09:40:55;99634.66;;;28.57;47.17
80308;BME280;69616;43.522;1.348;2023-06-10T09:43:21;99629.38;;;28.56;45.79
80308;BME280;69616;43.522;1.348;2023-06-10T09:45:50;99631.34;;;28.44;46.70
80308;BME280;69616;43.522;1.348;2023-06-10T09:48:18;99628.75;;;28.42;47.30
80308;BME280;69616;43.522;1.348;2023-06-10T09:50:45;99632.09;;;28.56;46.52
80308;BME280;69616;43.522;1.348;2023-06-10T09:53:11;99630.97;;;28.68;47.42
80308;BME280;69616;43.522;1.348;2023-06-10T09:55:40;99627.22;;;28.90;47.28
80308;BME280;69616;43.522;1.348;2023-06-10T09:58:06;99625.34;;;29.01;46.83
80308;BME280;69616;43.522;1.348;2023-06-10T10:00:34;99627.06;;;29.12;46.61
80308;BME280;69616;43.522;1.348;2023-06-10T10:03:00;99633.19;;;29.23;46.41
80308;BME280;69616;43.522;1.348;2023-06-10T10:05:27;99630.66;;;29.42;46.54
80308;BME280;69616;43.522;1.348;2023-06-10T10:07:53;99630.38;;;29.55;46.60
80308;BME280;69616;43.522;1.348;2023-06-10T10:10:20;99632.19;;;29.64;45.77
80308;BME280;69616;43.522;1.348;2023-06-10T10:12:47;99629.19;;;29.67;45.44
80308;BME280;69616;43.522;1.348;2023-06-10T10:15:16;99624.06;;;29.64;44.23
80308;BME280;69616;43.522;1.348;2023-06-10T10:18:09;99629.63;;;29.53;44.07
80308;BME280;69616;43.522;1.348;2023-06-10T10:20:40;99629.03;;;29.78;45.15
80308;BME280;69616;43.522;1.348;2023-06-10T10:23:10;99620.31;;;29.85;43.14
80308;BME280;69616;43.522;1.348;2023-06-10T10:25:40;99628.25;;;29.96;43.71
80308;BME280;69616;43.522;1.348;2023-06-10T10:28:15;99627.94;;;30.09;44.44
80308;BME280;69616;43.522;1.348;2023-06-10T10:30:46;99632.75;;;30.25;43.74
80308;BME280;69616;43.522;1.348;2023-06-10T10:33:21;99630.44;;;30.30;43.56
80308;BME280;69616;43.522;1.348;2023-06-10T10:35:48;99631.88;;;30.34;42.27
80308;BME280;69616;43.522;1.348;2023-06-10T10:38:15;99623.00;;;30.32;41.87
80308;BME280;69616;43.522;1.348;2023-06-10T10:40:41;99623.81;;;30.43;41.91
80308;BME280;69616;43.522;1.348;2023-06-10T10:43:07;99625.22;;;30.47;43.21
80308;BME280;69616;43.522;1.348;2023-06-10T10:45:34;99619.19;;;30.53;42.92
80308;BME280;69616;43.522;1.348;2023-06-10T10:48:05;99622.13;;;30.60;42.96
80308;BME280;69616;43.522;1.348;2023-06-10T10:50:31;99625.38;;;30.73;43.12
80308;BME280;69616;43.522;1.348;2023-06-10T10:53:01;99620.50;;;30.77;42.83
80308;BME280;69616;43.522;1.348;2023-06-10T10:55:27;99622.44;;;30.85;40.71
80308;BME280;69616;43.522;1.348;2023-06-10T10:58:03;99618.47;;;30.79;42.44
80308;BME280;69616;43.522;1.348;2023-06-10T11:00:33;99616.84;;;30.86;43.27
80308;BME280;69616;43.522;1.348;2023-06-10T11:05:40;99609.41;;;30.60;40.60
80308;BME280;69616;43.522;1.348;2023-06-10T11:08:07;99614.16;;;30.58;41.14
80308;BME280;69616;43.522;1.348;2023-06-10T11:10:35;99612.41;;;30.67;41.20
80308;BME280;69616;43.522;1.348;2023-06-10T11:13:08;99612.34;;;30.77;41.51
80308;BME280;69616;43.522;1.348;2023-06-10T11:15:39;99612.25;;;30.69;41.46
80308;BME280;69616;43.522;1.348;2023-06-10T11:20:55;99615.91;;;30.21;42.04
80308;BME280;69616;43.522;1.348;2023-06-10T11:31:21;99608.31;;;29.77;43.16
80308;BME280;69616;43.522;1.348;2023-06-10T11:33:47;99607.75;;;29.84;43.06
80308;BME280;69616;43.522;1.348;2023-06-10T11:36:13;99602.16;;;29.85;42.45
80308;BME280;69616;43.522;1.348;2023-06-10T11:38:40;99603.28;;;29.92;42.85
80308;BME280;69616;43.522;1.348;2023-06-10T11:41:06;99601.13;;;29.86;43.26
80308;BME280;69616;43.522;1.348;2023-06-10T11:43:33;99589.72;;;30.02;42.57
80308;BME280;69616;43.522;1.348;2023-06-10T11:45:58;99591.44;;;30.31;42.10
80308;BME280;69616;43.522;1.348;2023-06-10T11:48:25;99588.69;;;30.59;41.79
80308;BME280;69616;43.522;1.348;2023-06-10T11:50:53;99584.69;;;30.82;42.06
80308;BME280;69616;43.522;1.348;2023-06-10T11:53:19;99577.06;;;31.03;41.56
80308;BME280;69616;43.522;1.348;2023-06-10T11:55:49;99573.81;;;31.18;40.66
80308;BME280;69616;43.522;1.348;2023-06-10T11:58:25;99575.09;;;31.24;39.09
80308;BME280;69616;43.522;1.348;2023-06-10T12:00:51;99575.47;;;31.29;40.48
80308;BME280;69616;43.522;1.348;2023-06-10T12:03:19;99576.19;;;31.39;39.41
80308;BME280;69616;43.522;1.348;2023-06-10T12:06:03;99577.13;;;31.48;39.49
80308;BME280;69616;43.522;1.348;2023-06-10T12:08:29;99567.38;;;31.63;39.05
80308;BME280;69616;43.522;1.348;2023-06-10T12:10:56;99576.47;;;31.54;37.95
80308;BME280;69616;43.522;1.348;2023-06-10T12:13:22;99570.19;;;31.54;38.46
80308;BME280;69616;43.522;1.348;2023-06-10T12:15:49;99572.53;;;31.48;38.94
80308;BME280;69616;43.522;1.348;2023-06-10T12:18:18;99570.63;;;31.22;38.16
80308;BME280;69616;43.522;1.348;2023-06-10T12:20:44;99576.22;;;31.03;39.43
80308;BME280;69616;43.522;1.348;2023-06-10T12:23:10;99560.31;;;30.90;39.51
80308;BME280;69616;43.522;1.348;2023-06-10T12:25:37;99564.03;;;30.71;39.61
80308;BME280;69616;43.522;1.348;2023-06-10T12:28:03;99562.72;;;30.75;38.62
80308;BME280;69616;43.522;1.348;2023-06-10T12:30:30;99555.03;;;30.88;38.76
80308;BME280;69616;43.522;1.348;2023-06-10T12:32:57;99542.66;;;31.12;37.99
80308;BME280;69616;43.522;1.348;2023-06-10T12:35:26;99539.53;;;31.25;36.86
80308;BME280;69616;43.522;1.348;2023-06-10T12:38:03;99528.25;;;31.38;36.86
80308;BME280;69616;43.522;1.348;2023-06-10T12:40:34;99530.75;;;31.58;37.63
80308;BME280;69616;43.522;1.348;2023-06-10T12:43:01;99530.31;;;31.71;37.37
80308;BME280;69616;43.522;1.348;2023-06-10T12:45:31;99521.25;;;31.88;37.33
80308;BME280;69616;43.522;1.348;2023-06-10T12:48:07;99523.16;;;31.96;37.13
80308;BME280;69616;43.522;1.348;2023-06-10T12:50:41;99514.69;;;32.07;36.75
80308;BME280;69616;43.522;1.348;2023-06-10T12:53:07;99511.97;;;32.16;36.04
80308;BME280;69616;43.522;1.348;2023-06-10T12:55:33;99518.63;;;32.21;36.91
80308;BME280;69616;43.522;1.348;2023-06-10T12:57:59;99513.38;;;32.28;35.72
80308;BME280;69616;43.522;1.348;2023-06-10T13:00:26;99513.03;;;32.23;36.21
80308;BME280;69616;43.522;1.348;2023-06-10T13:02:55;99507.06;;;32.28;36.10
80308;BME280;69616;43.522;1.348;2023-06-10T13:05:20;99507.16;;;32.44;36.75
80308;BME280;69616;43.522;1.348;2023-06-10T13:07:46;99506.59;;;32.32;36.46
80308;BME280;69616;43.522;1.348;2023-06-10T13:10:13;99500.72;;;32.02;36.76
80308;BME280;69616;43.522;1.348;2023-06-10T13:12:39;99505.66;;;31.72;37.33
80308;BME280;69616;43.522;1.348;2023-06-10T13:15:05;99508.03;;;31.41;37.15
80308;BME280;69616;43.522;1.348;2023-06-10T13:17:30;99508.47;;;31.28;37.10